Terminal Aerodrome Forecast
Issued by NWS

Current Version | Previous Version | Graphics & Text | Print | Product List | Glossary On
Versions: 1 2 3 4 5 6 7 8 9 10 11 12 13 14 15 16
000
FTUS41 KILN 201000 AAB
TAFLUK
TAF AMD
KLUK 201023Z 2010/2106 26010KT P6SM OVC035
     FM201400 26012KT P6SM SKC
     FM201900 26012G18KT P6SM BKN040
     FM202200 25012KT P6SM BKN030=

USA.gov is the U.S. government's official web portal to all federal, state and local government web resources and services.